sensor_id;sensor_type;location;lat;lon;timestamp;pressure;altitude;pressure_sealevel;temperature;humidity
35291;BME280;21411;50.024;19.220;2023-10-08T00:01:20;98558.81;;;17.27;100.00
35291;BME280;21411;50.024;19.220;2023-10-08T00:03:48;98554.99;;;17.26;100.00
35291;BME280;21411;50.024;19.220;2023-10-08T00:06:21;98553.64;;;17.25;100.00
35291;BME280;21411;50.024;19.220;2023-10-08T00:08:48;98552.76;;;17.25;100.00
35291;BME280;21411;50.024;19.220;2023-10-08T00:11:14;98556.05;;;17.24;100.00
35291;BME280;21411;50.024;19.220;2023-10-08T00:13:42;98560.52;;;17.23;100.00
35291;BME280;21411;50.024;19.220;2023-10-08T00:16:11;98558.25;;;17.22;100.00
35291;BME280;21411;50.024;19.220;2023-10-08T00:18:42;98561.19;;;17.23;100.00
35291;BME280;21411;50.024;19.220;2023-10-08T00:21:15;98560.76;;;17.24;100.00
35291;BME280;21411;50.024;19.220;2023-10-08T00:23:43;98559.88;;;17.23;100.00
35291;BME280;21411;50.024;19.220;2023-10-08T00:26:16;98563.98;;;17.24;100.00
35291;BME280;21411;50.024;19.220;2023-10-08T00:28:47;98567.39;;;17.22;100.00
35291;BME280;21411;50.024;19.220;2023-10-08T00:31:17;98565.76;;;17.21;100.00
35291;BME280;21411;50.024;19.220;2023-10-08T00:33:43;98572.60;;;17.19;100.00
35291;BME280;21411;50.024;19.220;2023-10-08T00:36:11;98577.97;;;17.17;100.00
35291;BME280;21411;50.024;19.220;2023-10-08T00:38:47;98581.45;;;17.15;100.00
35291;BME280;21411;50.024;19.220;2023-10-08T00:41:17;98585.42;;;17.10;100.00
35291;BME280;21411;50.024;19.220;2023-10-08T00:43:48;98585.80;;;17.05;100.00
35291;BME280;21411;50.024;19.220;2023-10-08T00:46:16;98585.20;;;16.98;100.00
35291;BME280;21411;50.024;19.220;2023-10-08T00:48:52;98588.65;;;16.89;100.00
35291;BME280;21411;50.024;19.220;2023-10-08T00:51:27;98593.16;;;16.78;100.00
35291;BME280;21411;50.024;19.220;2023-10-08T00:54:01;98598.40;;;16.64;100.00
35291;BME280;21411;50.024;19.220;2023-10-08T00:56:46;98594.14;;;16.49;100.00
35291;BME280;21411;50.024;19.220;2023-10-08T00:59:19;98588.14;;;16.36;100.00
35291;BME280;21411;50.024;19.220;2023-10-08T01:01:48;98578.39;;;16.23;100.00
35291;BME280;21411;50.024;19.220;2023-10-08T01:04:22;98582.73;;;16.15;100.00
35291;BME280;21411;50.024;19.220;2023-10-08T01:06:54;98582.12;;;16.11;100.00
35291;BME280;21411;50.024;19.220;2023-10-08T01:09:22;98582.04;;;16.04;100.00
35291;BME280;21411;50.024;19.220;2023-10-08T01:14:42;98580.23;;;15.93;100.00
35291;BME280;21411;50.024;19.220;2023-10-08T01:17:10;98580.25;;;15.87;100.00
35291;BME280;21411;50.024;19.220;2023-10-08T01:19:45;98584.45;;;15.83;100.00
35291;BME280;21411;50.024;19.220;2023-10-08T01:22:22;98589.61;;;15.79;100.00
35291;BME280;21411;50.024;19.220;2023-10-08T01:24:51;98589.17;;;15.76;100.00
35291;BME280;21411;50.024;19.220;2023-10-08T01:27:18;98588.23;;;15.75;100.00
35291;BME280;21411;50.024;19.220;2023-10-08T01:29:53;98584.02;;;15.74;100.00
35291;BME280;21411;50.024;19.220;2023-10-08T01:32:20;98583.48;;;15.74;100.00
35291;BME280;21411;50.024;19.220;2023-10-08T01:34:48;98581.95;;;15.71;100.00
35291;BME280;21411;50.024;19.220;2023-10-08T01:37:16;98582.21;;;15.68;100.00
35291;BME280;21411;50.024;19.220;2023-10-08T01:39:47;98585.36;;;15.64;100.00
35291;BME280;21411;50.024;19.220;2023-10-08T01:42:16;98575.24;;;15.56;100.00
35291;BME280;21411;50.024;19.220;2023-10-08T01:44:48;98578.26;;;15.49;100.00
35291;BME280;21411;50.024;19.220;2023-10-08T01:47:15;98578.15;;;15.43;100.00
35291;BME280;21411;50.024;19.220;2023-10-08T01:49:43;98577.56;;;15.37;100.00
35291;BME280;21411;50.024;19.220;2023-10-08T01:52:13;98576.09;;;15.32;100.00
35291;BME280;21411;50.024;19.220;2023-10-08T01:54:49;98571.27;;;15.26;100.00
35291;BME280;21411;50.024;19.220;2023-10-08T01:57:16;98561.79;;;15.21;100.00
35291;BME280;21411;50.024;19.220;2023-10-08T01:59:43;98550.13;;;15.13;100.00
35291;BME280;21411;50.024;19.220;2023-10-08T02:02:10;98557.45;;;15.05;100.00
35291;BME280;21411;50.024;19.220;2023-10-08T02:04:36;98562.52;;;14.99;100.00
35291;BME280;21411;50.024;19.220;2023-10-08T02:07:03;98568.86;;;14.94;100.00
35291;BME280;21411;50.024;19.220;2023-10-08T02:09:30;98575.60;;;14.89;100.00
35291;BME280;21411;50.024;19.220;2023-10-08T02:11:57;98577.38;;;14.83;100.00
35291;BME280;21411;50.024;19.220;2023-10-08T02:14:25;98582.55;;;14.76;100.00
35291;BME280;21411;50.024;19.220;2023-10-08T02:16:51;98601.29;;;14.66;100.00
35291;BME280;21411;50.024;19.220;2023-10-08T02:19:22;98620.86;;;14.43;100.00
35291;BME280;21411;50.024;19.220;2023-10-08T02:21:56;98620.83;;;13.96;100.00
35291;BME280;21411;50.024;19.220;2023-10-08T02:24:25;98615.77;;;13.51;100.00
35291;BME280;21411;50.024;19.220;2023-10-08T02:26:52;98624.64;;;13.20;100.00
35291;BME280;21411;50.024;19.220;2023-10-08T02:29:19;98627.23;;;12.97;100.00
35291;BME280;21411;50.024;19.220;2023-10-08T02:31:46;98632.33;;;12.74;100.00
35291;BME280;21411;50.024;19.220;2023-10-08T02:34:12;98632.30;;;12.53;100.00
35291;BME280;21411;50.024;19.220;2023-10-08T02:36:39;98637.71;;;12.32;100.00
35291;BME280;21411;50.024;19.220;2023-10-08T02:39:09;98636.98;;;12.14;100.00
35291;BME280;21411;50.024;19.220;2023-10-08T02:41:40;98639.51;;;12.02;100.00
35291;BME280;21411;50.024;19.220;2023-10-08T02:44:13;98645.48;;;11.94;100.00
35291;BME280;21411;50.024;19.220;2023-10-08T02:46:47;98648.48;;;11.83;100.00
35291;BME280;21411;50.024;19.220;2023-10-08T02:49:18;98647.23;;;11.74;100.00
35291;BME280;21411;50.024;19.220;2023-10-08T02:51:54;98651.19;;;11.61;100.00
35291;BME280;21411;50.024;19.220;2023-10-08T02:54:22;98672.93;;;11.52;100.00
35291;BME280;21411;50.024;19.220;2023-10-08T02:56:58;98681.80;;;11.42;100.00
35291;BME280;21411;50.024;19.220;2023-10-08T02:59:29;98687.65;;;11.36;100.00
35291;BME280;21411;50.024;19.220;2023-10-08T03:02:10;98686.95;;;11.29;100.00
35291;BME280;21411;50.024;19.220;2023-10-08T03:04:45;98689.18;;;11.20;100.00
35291;BME280;21411;50.024;19.220;2023-10-08T03:07:13;98690.39;;;11.13;100.00
35291;BME280;21411;50.024;19.220;2023-10-08T03:09:48;98692.27;;;11.10;100.00
35291;BME280;21411;50.024;19.220;2023-10-08T03:12:17;98688.40;;;11.07;100.00
35291;BME280;21411;50.024;19.220;2023-10-08T03:14:44;98690.09;;;11.05;100.00
35291;BME280;21411;50.024;19.220;2023-10-08T03:17:30;98700.75;;;10.98;100.00
35291;BME280;21411;50.024;19.220;2023-10-08T03:20:03;98710.33;;;10.91;100.00
35291;BME280;21411;50.024;19.220;2023-10-08T03:22:48;98712.80;;;10.84;100.00
35291;BME280;21411;50.024;19.220;2023-10-08T03:25:16;98709.16;;;10.75;100.00
35291;BME280;21411;50.024;19.220;2023-10-08T03:27:44;98711.09;;;10.68;100.00
35291;BME280;21411;50.024;19.220;2023-10-08T03:30:11;98710.11;;;10.60;100.00
35291;BME280;21411;50.024;19.220;2023-10-08T03:32:42;98714.96;;;10.54;100.00
35291;BME280;21411;50.024;19.220;2023-10-08T03:35:10;98721.77;;;10.50;100.00
35291;BME280;21411;50.024;19.220;2023-10-08T03:37:39;98715.70;;;10.46;100.00
35291;BME280;21411;50.024;19.220;2023-10-08T03:40:12;98709.33;;;10.43;100.00
35291;BME280;21411;50.024;19.220;2023-10-08T03:42:57;98713.73;;;10.39;100.00
35291;BME280;21411;50.024;19.220;2023-10-08T03:45:23;98727.90;;;10.34;100.00
35291;BME280;21411;50.024;19.220;2023-10-08T03:48:08;98749.64;;;10.28;100.00
35291;BME280;21411;50.024;19.220;2023-10-08T03:50:41;98761.96;;;10.21;100.00
35291;BME280;21411;50.024;19.220;2023-10-08T03:53:09;98778.90;;;10.18;100.00
35291;BME280;21411;50.024;19.220;2023-10-08T03:55:39;98797.84;;;10.16;100.00
35291;BME280;21411;50.024;19.220;2023-10-08T03:58:09;98793.99;;;10.15;100.00
35291;BME280;21411;50.024;19.220;2023-10-08T04:00:54;98785.96;;;10.16;100.00
35291;BME280;21411;50.024;19.220;2023-10-08T04:03:35;98786.54;;;10.12;100.00
35291;BME280;21411;50.024;19.220;2023-10-08T04:06:20;98790.43;;;10.07;100.00
35291;BME280;21411;50.024;19.220;2023-10-08T04:08:55;98800.89;;;10.02;100.00
35291;BME280;21411;50.024;19.220;2023-10-08T04:11:39;98801.20;;;9.98;100.00
35291;BME280;21411;50.024;19.220;2023-10-08T04:14:18;98802.79;;;9.96;100.00
35291;BME280;21411;50.024;19.220;2023-10-08T04:16:45;98815.31;;;9.91;100.00
35291;BME280;21411;50.024;19.220;2023-10-08T04:19:12;98819.73;;;9.88;100.00
35291;BME280;21411;50.024;19.220;2023-10-08T04:21:39;98825.56;;;9.87;100.00
35291;BME280;21411;50.024;19.220;2023-10-08T04:24:09;98835.29;;;9.84;100.00
35291;BME280;21411;50.024;19.220;2023-10-08T04:26:35;98842.99;;;9.80;100.00
35291;BME280;21411;50.024;19.220;2023-10-08T04:29:02;98856.24;;;9.76;100.00
35291;BME280;21411;50.024;19.220;2023-10-08T04:31:29;98872.12;;;9.72;100.00
35291;BME280;21411;50.024;19.220;2023-10-08T04:34:07;98880.74;;;9.68;100.00
35291;BME280;21411;50.024;19.220;2023-10-08T04:36:45;98894.09;;;9.64;100.00
35291;BME280;21411;50.024;19.220;2023-10-08T04:39:14;98892.40;;;9.63;100.00
35291;BME280;21411;50.024;19.220;2023-10-08T04:41:48;98892.43;;;9.60;100.00
35291;BME280;21411;50.024;19.220;2023-10-08T04:44:21;98895.20;;;9.58;100.00
35291;BME280;21411;50.024;19.220;2023-10-08T04:46:48;98905.19;;;9.57;100.00
35291;BME280;21411;50.024;19.220;2023-10-08T04:49:18;98906.61;;;9.57;100.00
35291;BME280;21411;50.024;19.220;2023-10-08T04:52:05;98910.80;;;9.55;100.00
35291;BME280;21411;50.024;19.220;2023-10-08T04:54:35;98918.34;;;9.57;100.00
35291;BME280;21411;50.024;19.220;2023-10-08T04:57:07;98916.83;;;9.56;100.00
35291;BME280;21411;50.024;19.220;2023-10-08T04:59:42;98922.90;;;9.55;100.00
35291;BME280;21411;50.024;19.220;2023-10-08T05:02:09;98931.09;;;9.54;100.00
35291;BME280;21411;50.024;19.220;2023-10-08T05:04:50;98937.98;;;9.52;100.00
35291;BME280;21411;50.024;19.220;2023-10-08T05:07:33;98944.98;;;9.51;100.00
35291;BME280;21411;50.024;19.220;2023-10-08T05:10:13;98953.85;;;9.51;100.00
35291;BME280;21411;50.024;19.220;2023-10-08T05:12:53;98972.88;;;9.50;100.00
35291;BME280;21411;50.024;19.220;2023-10-08T05:15:28;98979.63;;;9.50;100.00
35291;BME280;21411;50.024;19.220;2023-10-08T05:18:08;98988.23;;;9.51;100.00
35291;BME280;21411;50.024;19.220;2023-10-08T05:20:50;98995.55;;;9.53;100.00
35291;BME280;21411;50.024;19.220;2023-10-08T05:23:18;98999.52;;;9.55;100.00
35291;BME280;21411;50.024;19.220;2023-10-08T05:25:52;98988.30;;;9.56;100.00
35291;BME280;21411;50.024;19.220;2023-10-08T05:28:39;98980.52;;;9.58;100.00
35291;BME280;21411;50.024;19.220;2023-10-08T05:31:28;98978.57;;;9.61;100.00
35291;BME280;21411;50.024;19.220;2023-10-08T05:34:21;98981.73;;;9.63;100.00
35291;BME280;21411;50.024;19.220;2023-10-08T05:36:59;98998.48;;;9.65;100.00
35291;BME280;21411;50.024;19.220;2023-10-08T05:39:26;99013.67;;;9.67;100.00
35291;BME280;21411;50.024;19.220;2023-10-08T05:42:20;99028.36;;;9.70;100.00
35291;BME280;21411;50.024;19.220;2023-10-08T05:44:57;99040.97;;;9.73;100.00
35291;BME280;21411;50.024;19.220;2023-10-08T05:47:36;99047.27;;;9.74;100.00
35291;BME280;21411;50.024;19.220;2023-10-08T05:50:04;99062.00;;;9.77;100.00
35291;BME280;21411;50.024;19.220;2023-10-08T05:52:44;99068.39;;;9.80;100.00
35291;BME280;21411;50.024;19.220;2023-10-08T05:55:23;99077.54;;;9.81;100.00
35291;BME280;21411;50.024;19.220;2023-10-08T05:57:54;99091.83;;;9.79;100.00
35291;BME280;21411;50.024;19.220;2023-10-08T06:00:43;99096.67;;;9.81;100.00
35291;BME280;21411;50.024;19.220;2023-10-08T06:03:32;99093.98;;;9.85;100.00
35291;BME280;21411;50.024;19.220;2023-10-08T06:06:00;99100.60;;;9.84;100.00
35291;BME280;21411;50.024;19.220;2023-10-08T06:08:42;99104.19;;;9.83;100.00
35291;BME280;21411;50.024;19.220;2023-10-08T06:11:16;99104.05;;;9.85;100.00
35291;BME280;21411;50.024;19.220;2023-10-08T06:13:54;99107.40;;;9.89;100.00
35291;BME280;21411;50.024;19.220;2023-10-08T06:16:26;99115.45;;;9.91;100.00
35291;BME280;21411;50.024;19.220;2023-10-08T06:19:08;99123.00;;;9.92;100.00
35291;BME280;21411;50.024;19.220;2023-10-08T06:21:40;99127.98;;;9.95;100.00
35291;BME280;21411;50.024;19.220;2023-10-08T06:24:08;99138.81;;;9.97;100.00
35291;BME280;21411;50.024;19.220;2023-10-08T06:26:39;99147.60;;;9.99;100.00
35291;BME280;21411;50.024;19.220;2023-10-08T06:29:10;99152.23;;;10.01;100.00
35291;BME280;21411;50.024;19.220;2023-10-08T06:31:45;99155.40;;;10.02;100.00
35291;BME280;21411;50.024;19.220;2023-10-08T06:34:22;99157.06;;;10.06;100.00
35291;BME280;21411;50.024;19.220;2023-10-08T06:36:51;99154.94;;;10.12;100.00
35291;BME280;21411;50.024;19.220;2023-10-08T06:39:21;99156.80;;;10.16;100.00
35291;BME280;21411;50.024;19.220;2023-10-08T06:41:53;99157.79;;;10.21;100.00
35291;BME280;21411;50.024;19.220;2023-10-08T06:44:20;99155.90;;;10.22;100.00
35291;BME280;21411;50.024;19.220;2023-10-08T06:46:46;99161.08;;;10.28;100.00
35291;BME280;21411;50.024;19.220;2023-10-08T06:49:14;99168.98;;;10.32;100.00
35291;BME280;21411;50.024;19.220;2023-10-08T06:51:42;99175.47;;;10.34;100.00
35291;BME280;21411;50.024;19.220;2023-10-08T06:54:11;99193.28;;;10.33;100.00
35291;BME280;21411;50.024;19.220;2023-10-08T06:56:40;99196.34;;;10.35;100.00
35291;BME280;21411;50.024;19.220;2023-10-08T06:59:13;99203.38;;;10.39;100.00
35291;BME280;21411;50.024;19.220;2023-10-08T07:01:40;99207.87;;;10.41;100.00
35291;BME280;21411;50.024;19.220;2023-10-08T07:04:08;99200.48;;;10.42;100.00
35291;BME280;21411;50.024;19.220;2023-10-08T07:06:39;99199.23;;;10.45;100.00
35291;BME280;21411;50.024;19.220;2023-10-08T07:09:07;99199.23;;;10.48;100.00
35291;BME280;21411;50.024;19.220;2023-10-08T07:11:49;99195.06;;;10.52;100.00
35291;BME280;21411;50.024;19.220;2023-10-08T07:14:29;99202.26;;;10.57;100.00
35291;BME280;21411;50.024;19.220;2023-10-08T07:16:58;99213.21;;;10.58;100.00
35291;BME280;21411;50.024;19.220;2023-10-08T07:19:26;99220.37;;;10.60;100.00
35291;BME280;21411;50.024;19.220;2023-10-08T07:22:00;99226.04;;;10.62;100.00
35291;BME280;21411;50.024;19.220;2023-10-08T07:24:29;99230.96;;;10.66;100.00
35291;BME280;21411;50.024;19.220;2023-10-08T07:26:58;99234.33;;;10.69;100.00
35291;BME280;21411;50.024;19.220;2023-10-08T07:29:24;99234.46;;;10.70;100.00
35291;BME280;21411;50.024;19.220;2023-10-08T07:31:51;99238.55;;;10.67;100.00
35291;BME280;21411;50.024;19.220;2023-10-08T07:34:20;99245.27;;;10.65;100.00
35291;BME280;21411;50.024;19.220;2023-10-08T07:36:50;99243.81;;;10.68;100.00
35291;BME280;21411;50.024;19.220;2023-10-08T07:39:19;99247.07;;;10.75;100.00
35291;BME280;21411;50.024;19.220;2023-10-08T07:41:52;99246.03;;;10.83;100.00
35291;BME280;21411;50.024;19.220;2023-10-08T07:44:23;99244.43;;;10.91;100.00
35291;BME280;21411;50.024;19.220;2023-10-08T07:46:51;99242.50;;;11.11;100.00
35291;BME280;21411;50.024;19.220;2023-10-08T07:49:20;99246.44;;;11.32;100.00
35291;BME280;21411;50.024;19.220;2023-10-08T07:51:46;99249.05;;;11.41;100.00
35291;BME280;21411;50.024;19.220;2023-10-08T07:54:20;99254.80;;;11.40;100.00
35291;BME280;21411;50.024;19.220;2023-10-08T07:56:49;99258.71;;;11.35;100.00
35291;BME280;21411;50.024;19.220;2023-10-08T07:59:23;99268.14;;;11.27;100.00
35291;BME280;21411;50.024;19.220;2023-10-08T08:01:50;99275.23;;;11.16;100.00
35291;BME280;21411;50.024;19.220;2023-10-08T08:04:20;99283.25;;;11.05;100.00
35291;BME280;21411;50.024;19.220;2023-10-08T08:06:50;99280.89;;;11.03;100.00
35291;BME280;21411;50.024;19.220;2023-10-08T08:09:17;99289.73;;;11.01;100.00
35291;BME280;21411;50.024;19.220;2023-10-08T08:11:46;99301.26;;;10.93;100.00
35291;BME280;21411;50.024;19.220;2023-10-08T08:14:16;99302.14;;;10.90;100.00
35291;BME280;21411;50.024;19.220;2023-10-08T08:16:44;99301.77;;;10.90;100.00
35291;BME280;21411;50.024;19.220;2023-10-08T08:19:15;99309.67;;;10.92;100.00
35291;BME280;21411;50.024;19.220;2023-10-08T08:21:50;99305.64;;;11.02;100.00
35291;BME280;21411;50.024;19.220;2023-10-08T08:24:18;99308.74;;;11.20;100.00
35291;BME280;21411;50.024;19.220;2023-10-08T08:26:55;99307.59;;;11.38;100.00
35291;BME280;21411;50.024;19.220;2023-10-08T08:29:35;99314.02;;;11.38;100.00
35291;BME280;21411;50.024;19.220;2023-10-08T08:32:11;99315.59;;;11.33;100.00
35291;BME280;21411;50.024;19.220;2023-10-08T08:34:42;99313.83;;;11.38;100.00
35291;BME280;21411;50.024;19.220;2023-10-08T08:37:11;99310.09;;;11.54;100.00
35291;BME280;21411;50.024;19.220;2023-10-08T08:39:39;99306.66;;;11.76;100.00
35291;BME280;21411;50.024;19.220;2023-10-08T08:42:05;99308.15;;;11.89;100.00
35291;BME280;21411;50.024;19.220;2023-10-08T08:44:33;99309.39;;;12.13;100.00
35291;BME280;21411;50.024;19.220;2023-10-08T08:47:02;99313.41;;;12.45;100.00
35291;BME280;21411;50.024;19.220;2023-10-08T08:49:35;99315.80;;;12.54;100.00
35291;BME280;21411;50.024;19.220;2023-10-08T08:52:05;99316.19;;;12.44;100.00
35291;BME280;21411;50.024;19.220;2023-10-08T08:54:32;99315.52;;;12.40;100.00
35291;BME280;21411;50.024;19.220;2023-10-08T08:57:03;99317.27;;;12.46;100.00
35291;BME280;21411;50.024;19.220;2023-10-08T08:59:50;99318.65;;;12.44;100.00
35291;BME280;21411;50.024;19.220;2023-10-08T09:02:19;99320.42;;;12.44;100.00
35291;BME280;21411;50.024;19.220;2023-10-08T09:04:47;99328.20;;;12.50;100.00
35291;BME280;21411;50.024;19.220;2023-10-08T09:07:14;99335.73;;;12.62;100.00
35291;BME280;21411;50.024;19.220;2023-10-08T09:09:41;99343.34;;;12.78;100.00
35291;BME280;21411;50.024;19.220;2023-10-08T09:12:07;99343.17;;;13.01;100.00
35291;BME280;21411;50.024;19.220;2023-10-08T09:14:37;99345.98;;;13.14;100.00
35291;BME280;21411;50.024;19.220;2023-10-08T09:17:07;99347.30;;;13.33;100.00
35291;BME280;21411;50.024;19.220;2023-10-08T09:19:38;99348.04;;;13.60;100.00
35291;BME280;21411;50.024;19.220;2023-10-08T09:22:11;99351.00;;;13.75;100.00
35291;BME280;21411;50.024;19.220;2023-10-08T09:24:40;99354.34;;;13.71;100.00
35291;BME280;21411;50.024;19.220;2023-10-08T09:27:08;99360.98;;;13.52;100.00
35291;BME280;21411;50.024;19.220;2023-10-08T09:29:35;99358.06;;;13.27;100.00
35291;BME280;21411;50.024;19.220;2023-10-08T09:32:10;99368.22;;;13.07;100.00
35291;BME280;21411;50.024;19.220;2023-10-08T09:34:37;99372.58;;;12.94;100.00
35291;BME280;21411;50.024;19.220;2023-10-08T09:37:03;99377.51;;;12.85;100.00
35291;BME280;21411;50.024;19.220;2023-10-08T09:39:31;99381.94;;;12.70;100.00
35291;BME280;21411;50.024;19.220;2023-10-08T09:42:04;99380.27;;;12.55;100.00
35291;BME280;21411;50.024;19.220;2023-10-08T09:44:32;99381.30;;;12.63;100.00
35291;BME280;21411;50.024;19.220;2023-10-08T09:47:07;99381.70;;;12.78;100.00
35291;BME280;21411;50.024;19.220;2023-10-08T09:49:48;99380.22;;;12.92;100.00
35291;BME280;21411;50.024;19.220;2023-10-08T09:52:28;99381.26;;;13.15;100.00
35291;BME280;21411;50.024;19.220;2023-10-08T09:55:00;99385.05;;;13.34;100.00
35291;BME280;21411;50.024;19.220;2023-10-08T09:57:30;99394.49;;;13.32;100.00
35291;BME280;21411;50.024;19.220;2023-10-08T09:59:56;99393.90;;;13.07;100.00
35291;BME280;21411;50.024;19.220;2023-10-08T10:02:26;99395.64;;;12.80;100.00
35291;BME280;21411;50.024;19.220;2023-10-08T10:04:55;99395.83;;;12.80;100.00
35291;BME280;21411;50.024;19.220;2023-10-08T10:07:21;99396.38;;;12.93;100.00
35291;BME280;21411;50.024;19.220;2023-10-08T10:09:51;99399.73;;;13.01;100.00
35291;BME280;21411;50.024;19.220;2023-10-08T10:12:24;99401.29;;;13.06;100.00
35291;BME280;21411;50.024;19.220;2023-10-08T10:14:53;99404.32;;;13.07;100.00
35291;BME280;21411;50.024;19.220;2023-10-08T10:17:25;99403.71;;;13.05;100.00
35291;BME280;21411;50.024;19.220;2023-10-08T10:20:01;99407.15;;;13.07;100.00
35291;BME280;21411;50.024;19.220;2023-10-08T10:22:31;99416.13;;;13.06;100.00
35291;BME280;21411;50.024;19.220;2023-10-08T10:25:00;99415.25;;;13.04;100.00
35291;BME280;21411;50.024;19.220;2023-10-08T10:27:30;99419.38;;;13.03;100.00
35291;BME280;21411;50.024;19.220;2023-10-08T10:30:03;99419.90;;;13.11;100.00
35291;BME280;21411;50.024;19.220;2023-10-08T10:32:37;99422.72;;;13.24;100.00
35291;BME280;21411;50.024;19.220;2023-10-08T10:35:04;99425.33;;;13.30;100.00
35291;BME280;21411;50.024;19.220;2023-10-08T10:37:37;99427.35;;;13.37;100.00
35291;BME280;21411;50.024;19.220;2023-10-08T10:40:08;99432.04;;;13.42;100.00
35291;BME280;21411;50.024;19.220;2023-10-08T10:42:39;99434.17;;;13.44;100.00
35291;BME280;21411;50.024;19.220;2023-10-08T10:45:15;99440.40;;;13.44;100.00
35291;BME280;21411;50.024;19.220;2023-10-08T10:48:00;99448.25;;;13.34;100.00
35291;BME280;21411;50.024;19.220;2023-10-08T10:50:39;99450.90;;;13.30;100.00
35291;BME280;21411;50.024;19.220;2023-10-08T10:53:17;99452.98;;;13.30;100.00
35291;BME280;21411;50.024;19.220;2023-10-08T10:55:45;99444.60;;;13.33;100.00
35291;BME280;21411;50.024;19.220;2023-10-08T10:58:26;99444.20;;;13.36;100.00
35291;BME280;21411;50.024;19.220;2023-10-08T11:00:54;99445.98;;;13.38;100.00
35291;BME280;21411;50.024;19.220;2023-10-08T11:03:25;99443.30;;;13.44;100.00
35291;BME280;21411;50.024;19.220;2023-10-08T11:05:57;99444.47;;;13.54;100.00
35291;BME280;21411;50.024;19.220;2023-10-08T11:08:26;99444.90;;;13.64;100.00
35291;BME280;21411;50.024;19.220;2023-10-08T11:11:01;99448.74;;;13.72;100.00
35291;BME280;21411;50.024;19.220;2023-10-08T11:13:34;99453.81;;;13.80;100.00
35291;BME280;21411;50.024;19.220;2023-10-08T11:16:05;99455.20;;;13.86;100.00
35291;BME280;21411;50.024;19.220;2023-10-08T11:18:31;99457.59;;;13.86;100.00
35291;BME280;21411;50.024;19.220;2023-10-08T11:21:09;99461.46;;;13.74;100.00
35291;BME280;21411;50.024;19.220;2023-10-08T11:23:44;99456.36;;;13.80;100.00
35291;BME280;21411;50.024;19.220;2023-10-08T11:26:17;99457.35;;;13.86;100.00
35291;BME280;21411;50.024;19.220;2023-10-08T11:28:45;99457.48;;;13.97;100.00
35291;BME280;21411;50.024;19.220;2023-10-08T11:31:17;99455.48;;;14.02;100.00
35291;BME280;21411;50.024;19.220;2023-10-08T11:33:48;99452.67;;;13.97;100.00
35291;BME280;21411;50.024;19.220;2023-10-08T11:36:21;99451.97;;;13.87;100.00
35291;BME280;21411;50.024;19.220;2023-10-08T11:38:55;99455.56;;;13.89;100.00
35291;BME280;21411;50.024;19.220;2023-10-08T11:41:28;99461.17;;;13.85;100.00
35291;BME280;21411;50.024;19.220;2023-10-08T11:43:56;99460.37;;;13.79;100.00
35291;BME280;21411;50.024;19.220;2023-10-08T11:46:25;99455.39;;;13.74;100.00
35291;BME280;21411;50.024;19.220;2023-10-08T11:48:59;99455.31;;;13.77;100.00
35291;BME280;21411;50.024;19.220;2023-10-08T11:51:34;99455.40;;;13.79;100.00
35291;BME280;21411;50.024;19.220;2023-10-08T11:54:01;99457.13;;;13.77;100.00
35291;BME280;21411;50.024;19.220;2023-10-08T11:56:28;99460.44;;;13.73;100.00
35291;BME280;21411;50.024;19.220;2023-10-08T11:58:55;99460.50;;;13.70;100.00
35291;BME280;21411;50.024;19.220;2023-10-08T12:01:24;99458.43;;;13.67;97.69
35291;BME280;21411;50.024;19.220;2023-10-08T12:03:50;99467.27;;;13.58;84.38
35291;BME280;21411;50.024;19.220;2023-10-08T12:06:17;99470.96;;;13.54;82.54
35291;BME280;21411;50.024;19.220;2023-10-08T12:08:47;99475.53;;;13.55;81.79
35291;BME280;21411;50.024;19.220;2023-10-08T12:11:19;99478.01;;;13.53;79.36
35291;BME280;21411;50.024;19.220;2023-10-08T12:13:49;99480.05;;;13.54;77.13
35291;BME280;21411;50.024;19.220;2023-10-08T12:16:16;99481.33;;;13.56;73.85
35291;BME280;21411;50.024;19.220;2023-10-08T12:18:49;99480.83;;;13.55;72.89
35291;BME280;21411;50.024;19.220;2023-10-08T12:21:20;99485.60;;;13.54;70.36
35291;BME280;21411;50.024;19.220;2023-10-08T12:23:47;99483.67;;;13.51;66.90
35291;BME280;21411;50.024;19.220;2023-10-08T12:26:16;99487.52;;;13.47;66.59
35291;BME280;21411;50.024;19.220;2023-10-08T12:28:42;99486.75;;;13.45;65.91
35291;BME280;21411;50.024;19.220;2023-10-08T12:31:12;99494.31;;;13.42;63.96
35291;BME280;21411;50.024;19.220;2023-10-08T12:33:42;99501.30;;;13.39;62.01
35291;BME280;21411;50.024;19.220;2023-10-08T12:36:11;99499.66;;;13.36;61.74
35291;BME280;21411;50.024;19.220;2023-10-08T12:38:41;99501.13;;;13.36;60.37
35291;BME280;21411;50.024;19.220;2023-10-08T12:41:11;99503.73;;;13.34;58.73
35291;BME280;21411;50.024;19.220;2023-10-08T12:43:39;99502.27;;;13.30;58.55
35291;BME280;21411;50.024;19.220;2023-10-08T12:46:09;99503.67;;;13.28;57.64
35291;BME280;21411;50.024;19.220;2023-10-08T12:48:47;99500.94;;;13.26;56.79
35291;BME280;21411;50.024;19.220;2023-10-08T12:51:18;99506.30;;;13.20;55.39
35291;BME280;21411;50.024;19.220;2023-10-08T12:53:53;99511.27;;;13.15;55.57
35291;BME280;21411;50.024;19.220;2023-10-08T12:56:30;99514.17;;;13.14;55.34
35291;BME280;21411;50.024;19.220;2023-10-08T12:59:04;99512.48;;;13.08;52.26
35291;BME280;21411;50.024;19.220;2023-10-08T13:01:34;99509.24;;;13.01;52.34
35291;BME280;21411;50.024;19.220;2023-10-08T13:04:02;99513.55;;;13.03;54.14
35291;BME280;21411;50.024;19.220;2023-10-08T13:06:34;99511.98;;;13.08;54.57
35291;BME280;21411;50.024;19.220;2023-10-08T13:09:03;99512.10;;;13.09;54.40